WORK_DATE stringdate 2018-01-01 00:00:00 2022-08-18 00:00:00 | DEB_TIME stringlengths 23 23 | DEB_TIME_HOUR int64 9 22 | FIN_TIME stringlengths 23 23 | ENTITY_DESCRIPTION_SHORT stringclasses 39
values | WAIT_TIME_MAX int64 0 80 | NB_UNITS float64 -1 130 | GUEST_CARRIED float64 -478 15k | CAPACITY float64 0 756 | ADJUST_CAPACITY float64 0 756 | OPEN_TIME int64 0 15 | UP_TIME int64 -15 15 | DOWNTIME int64 0 30 | NB_MAX_UNIT float64 0 130 | TOTAL_DAILY_ATTENDANCE float64 -16,096 121k | temp float64 -6.64 41.3 | humidity float64 17 100 | wind_speed float64 0.02 12.9 | DAY_OF_WEEK stringclasses 7
values | temp_rounded float64 -7 41 | IS_BROKEN bool 2
classes | IS_BLACK_SWAN bool 2
classes |
|---|---|---|---|---|---|---|---|---|---|---|---|---|---|---|---|---|---|---|---|---|---|
2022-08-18 | 2022-08-18 19:30:00.000 | 19 | 2022-08-18 19:45:00.000 | Superman Ride | 15 | 3 | 0 | 243.75 | 243.75 | 15 | 15 | 0 | 3 | 52,732 | 24.2 | 67 | 2.77 | Thursday | 24 | false | false |
2022-08-18 | 2022-08-18 22:15:00.000 | 22 | 2022-08-18 22:30:00.000 | Top Spin | 0 | 0 | 0 | 0 | 0 | 0 | 0 | 0 | 2 | 52,732 | 20.23 | 84 | 4.2 | Thursday | 20 | false | false |
2022-08-18 | 2022-08-18 09:30:00.000 | 9 | 2022-08-18 09:45:00.000 | Roller Coaster | 0 | 2 | 0 | 0 | 0 | 0 | 0 | 0 | 2 | 52,732 | 21.15 | 49 | 1.35 | Thursday | 21 | false | false |
2022-08-18 | 2022-08-18 19:30:00.000 | 19 | 2022-08-18 19:45:00.000 | Scooby Doo | 30 | 36 | 140 | 425 | 425 | 15 | 15 | 0 | 36 | 52,732 | 24.2 | 67 | 2.77 | Thursday | 24 | false | false |
2022-08-18 | 2022-08-18 20:15:00.000 | 20 | 2022-08-18 20:30:00.000 | Oz Theatre | 0 | 2 | 0 | 0 | 0 | 0 | 0 | 0 | 2 | 52,732 | 22.67 | 72 | 4.2 | Thursday | 23 | false | false |
2022-08-18 | 2022-08-18 18:30:00.000 | 18 | 2022-08-18 18:45:00.000 | Himalaya Ride | 0 | 0 | 0 | 0 | 0 | 0 | 0 | 0 | 1 | 52,732 | 26.09 | 66 | 2.77 | Thursday | 26 | false | false |
2022-08-18 | 2022-08-18 18:00:00.000 | 18 | 2022-08-18 18:15:00.000 | Vertical Drop | 10 | 4 | 239 | 411.25 | 411.25 | 15 | 15 | 0 | 4 | 52,732 | 26.09 | 66 | 2.77 | Thursday | 26 | false | false |
2022-08-18 | 2022-08-18 19:45:00.000 | 19 | 2022-08-18 20:00:00.000 | Spiral Slide | 0 | 1 | 0 | 0 | 0 | 0 | 0 | 0 | 2 | 52,732 | 24.2 | 67 | 2.77 | Thursday | 24 | false | false |
2022-08-18 | 2022-08-18 20:30:00.000 | 20 | 2022-08-18 20:45:00.000 | Oz Theatre | 0 | 2 | 0 | 0 | 0 | 0 | 0 | 0 | 2 | 52,732 | 22.67 | 72 | 4.2 | Thursday | 23 | false | false |
2022-08-18 | 2022-08-18 09:15:00.000 | 9 | 2022-08-18 09:30:00.000 | Flying Coaster | 5 | 20.3333 | 198 | 705.6 | 588 | 14 | 14 | 0 | 25 | 52,732 | 21.15 | 49 | 1.35 | Thursday | 21 | false | false |
2022-08-18 | 2022-08-18 22:00:00.000 | 22 | 2022-08-18 22:15:00.000 | Scooby Doo | 0 | 36 | 0 | 0 | 0 | 0 | 0 | 0 | 36 | 52,732 | 20.23 | 84 | 4.2 | Thursday | 20 | false | false |
2022-08-18 | 2022-08-18 09:00:00.000 | 9 | 2022-08-18 09:15:00.000 | Merry Go Round | 0 | 130 | 0 | 0 | 0 | 0 | 0 | 0 | 130 | 52,732 | 21.15 | 49 | 1.35 | Thursday | 21 | false | false |
2022-08-18 | 2022-08-18 18:30:00.000 | 18 | 2022-08-18 18:45:00.000 | Spiral Slide | 0 | 1 | 0 | 0 | 0 | 0 | 0 | 0 | 2 | 52,732 | 26.09 | 66 | 2.77 | Thursday | 26 | false | false |
2022-08-18 | 2022-08-18 11:30:00.000 | 11 | 2022-08-18 11:45:00.000 | Himalaya Ride | 0 | 0 | 0 | 0 | 0 | 0 | 0 | 0 | 1 | 52,732 | 25.55 | 70 | 2.46 | Thursday | 26 | false | false |
2022-08-18 | 2022-08-18 22:15:00.000 | 22 | 2022-08-18 22:30:00.000 | Roller Coaster | 0 | 1 | 0 | 0 | 0 | 0 | 0 | 0 | 2 | 52,732 | 20.23 | 84 | 4.2 | Thursday | 20 | false | false |
2022-08-18 | 2022-08-18 16:15:00.000 | 16 | 2022-08-18 16:30:00.000 | Aeroplane Ride | 45 | 20 | 70 | 116.25 | 116.25 | 15 | 15 | 0 | 20 | 52,732 | 27.46 | 59 | 3.52 | Thursday | 27 | false | true |
2022-08-18 | 2022-08-18 14:15:00.000 | 14 | 2022-08-18 14:30:00.000 | Himalaya Ride | 0 | 0 | 0 | 0 | 0 | 0 | 0 | 0 | 1 | 52,732 | 28.2 | 49 | 3.52 | Thursday | 28 | false | false |
2022-08-18 | 2022-08-18 22:00:00.000 | 22 | 2022-08-18 22:15:00.000 | Inverted Coaster | 0 | 1 | 0 | 0 | 0 | 0 | 0 | 0 | 2 | 52,732 | 20.23 | 84 | 4.2 | Thursday | 20 | false | false |
2022-08-18 | 2022-08-18 18:15:00.000 | 18 | 2022-08-18 18:30:00.000 | Crazy Dance | 0 | 0 | 0 | 0 | 0 | 0 | 0 | 0 | 1 | 52,732 | 26.09 | 66 | 2.77 | Thursday | 26 | false | false |
2022-08-18 | 2022-08-18 18:45:00.000 | 18 | 2022-08-18 19:00:00.000 | Spiral Slide | 0 | 1 | 0 | 0 | 0 | 0 | 0 | 0 | 2 | 52,732 | 26.09 | 66 | 2.77 | Thursday | 26 | false | false |
2022-08-18 | 2022-08-18 18:45:00.000 | 18 | 2022-08-18 19:00:00.000 | Himalaya Ride | 0 | 0 | 0 | 0 | 0 | 0 | 0 | 0 | 1 | 52,732 | 26.09 | 66 | 2.77 | Thursday | 26 | false | false |
2022-08-18 | 2022-08-18 10:15:00.000 | 10 | 2022-08-18 10:30:00.000 | Crazy Dance | 0 | 0 | 0 | 0 | 0 | 0 | 0 | 0 | 1 | 52,732 | 23.59 | 49 | 1.35 | Thursday | 24 | false | false |
2022-08-18 | 2022-08-18 09:15:00.000 | 9 | 2022-08-18 09:30:00.000 | Crazy Dance | 0 | 0 | 0 | 0 | 0 | 0 | 0 | 0 | 1 | 52,732 | 21.15 | 49 | 1.35 | Thursday | 21 | false | false |
2022-08-18 | 2022-08-18 20:30:00.000 | 20 | 2022-08-18 20:45:00.000 | Giga Coaster | 0 | 0 | 0 | 0 | 0 | 0 | 0 | 0 | 24 | 52,732 | 22.67 | 72 | 4.2 | Thursday | 23 | false | false |
2022-08-18 | 2022-08-18 10:45:00.000 | 10 | 2022-08-18 11:00:00.000 | Oz Theatre | 0 | 2 | 0 | 0 | 0 | 0 | 0 | 0 | 2 | 52,732 | 23.59 | 49 | 1.35 | Thursday | 24 | false | false |
Subsets and Splits
No community queries yet
The top public SQL queries from the community will appear here once available.